sensor_id;sensor_type;location;lat;lon;timestamp;pressure;altitude;pressure_sealevel;temperature;humidity
83633;BME280;73595;53.084;6.696;2024-02-23T00:00:29;98189.81;;;4.08;94.92
83633;BME280;73595;53.084;6.696;2024-02-23T00:02:54;98195.84;;;4.08;94.89
83633;BME280;73595;53.084;6.696;2024-02-23T00:05:21;98262.59;;;4.47;95.19
83633;BME280;73595;53.084;6.696;2024-02-23T00:07:47;98263.97;;;4.43;94.24
83633;BME280;73595;53.084;6.696;2024-02-23T00:10:12;98274.88;;;4.40;94.54
83633;BME280;73595;53.084;6.696;2024-02-23T00:12:38;98228.31;;;4.07;94.54
83633;BME280;73595;53.084;6.696;2024-02-23T00:15:03;98252.16;;;4.19;94.50
83633;BME280;73595;53.084;6.696;2024-02-23T00:17:29;98285.38;;;4.47;94.01
83633;BME280;73595;53.084;6.696;2024-02-23T00:19:55;98298.91;;;4.50;94.09
83633;BME280;73595;53.084;6.696;2024-02-23T00:22:20;98305.97;;;4.50;93.94
83633;BME280;73595;53.084;6.696;2024-02-23T00:24:46;98260.59;;;4.15;93.99
83633;BME280;73595;53.084;6.696;2024-02-23T00:27:11;98220.13;;;3.89;94.06
83633;BME280;73595;53.084;6.696;2024-02-23T00:29:37;98286.94;;;4.34;94.01
83633;BME280;73595;53.084;6.696;2024-02-23T00:32:03;98307.13;;;4.41;93.98
83633;BME280;73595;53.084;6.696;2024-02-23T00:34:28;98345.50;;;4.48;95.33
83633;BME280;73595;53.084;6.696;2024-02-23T00:36:56;98354.56;;;4.46;95.34
83633;BME280;73595;53.084;6.696;2024-02-23T00:39:22;98318.59;;;4.33;94.96
83633;BME280;73595;53.084;6.696;2024-02-23T00:41:48;98243.34;;;3.71;93.88
83633;BME280;73595;53.084;6.696;2024-02-23T00:44:14;98295.63;;;4.07;93.12
83633;BME280;73595;53.084;6.696;2024-02-23T00:46:39;98370.03;;;4.41;93.47
83633;BME280;73595;53.084;6.696;2024-02-23T00:49:05;98299.56;;;3.96;93.21
83633;BME280;73595;53.084;6.696;2024-02-23T00:51:31;98280.22;;;3.48;92.96
83633;BME280;73595;53.084;6.696;2024-02-23T00:53:56;98406.59;;;4.21;93.52
83633;BME280;73595;53.084;6.696;2024-02-23T00:56:22;98340.56;;;3.83;93.85
83633;BME280;73595;53.084;6.696;2024-02-23T00:58:48;98418.25;;;4.18;93.46
83633;BME280;73595;53.084;6.696;2024-02-23T01:01:13;98337.19;;;3.67;92.84
83633;BME280;73595;53.084;6.696;2024-02-23T01:03:39;98417.25;;;4.19;93.03
83633;BME280;73595;53.084;6.696;2024-02-23T01:06:04;98450.06;;;4.15;93.38
83633;BME280;73595;53.084;6.696;2024-02-23T01:08:30;98371.59;;;3.64;93.39
83633;BME280;73595;53.084;6.696;2024-02-23T01:10:56;98456.59;;;3.83;94.14
83633;BME280;73595;53.084;6.696;2024-02-23T01:13:22;98401.00;;;3.15;95.20
83633;BME280;73595;53.084;6.696;2024-02-23T01:15:47;98345.28;;;3.00;95.27
83633;BME280;73595;53.084;6.696;2024-02-23T01:18:13;98462.97;;;3.59;95.46
83633;BME280;73595;53.084;6.696;2024-02-23T01:20:38;98359.81;;;2.88;95.47
83633;BME280;73595;53.084;6.696;2024-02-23T01:23:03;98425.09;;;3.25;95.40
83633;BME280;73595;53.084;6.696;2024-02-23T01:25:29;98471.47;;;3.61;95.38
83633;BME280;73595;53.084;6.696;2024-02-23T01:27:54;98462.06;;;3.52;95.03
83633;BME280;73595;53.084;6.696;2024-02-23T01:30:19;98476.44;;;3.56;95.39
83633;BME280;73595;53.084;6.696;2024-02-23T01:32:45;98476.69;;;3.61;95.12
83633;BME280;73595;53.084;6.696;2024-02-23T01:35:11;98462.38;;;3.42;95.42
83633;BME280;73595;53.084;6.696;2024-02-23T01:37:37;98424.63;;;3.22;95.10
83633;BME280;73595;53.084;6.696;2024-02-23T01:40:02;98494.22;;;3.61;95.51
83633;BME280;73595;53.084;6.696;2024-02-23T01:42:28;98487.97;;;3.62;95.38
83633;BME280;73595;53.084;6.696;2024-02-23T01:44:54;98478.50;;;3.61;95.44
83633;BME280;73595;53.084;6.696;2024-02-23T01:47:25;98501.50;;;3.80;95.56
83633;BME280;73595;53.084;6.696;2024-02-23T01:49:51;98501.00;;;3.91;95.25
83633;BME280;73595;53.084;6.696;2024-02-23T01:52:17;98484.72;;;3.74;95.28
83633;BME280;73595;53.084;6.696;2024-02-23T01:54:43;98476.22;;;3.72;95.28
83633;BME280;73595;53.084;6.696;2024-02-23T01:57:09;98406.06;;;3.32;95.40
83633;BME280;73595;53.084;6.696;2024-02-23T01:59:36;98459.19;;;3.62;95.73
83633;BME280;73595;53.084;6.696;2024-02-23T02:02:03;98493.72;;;3.87;95.79
83633;BME280;73595;53.084;6.696;2024-02-23T02:04:29;98467.19;;;3.75;95.46
83633;BME280;73595;53.084;6.696;2024-02-23T02:06:55;98481.78;;;3.84;95.61
83633;BME280;73595;53.084;6.696;2024-02-23T02:09:21;98518.94;;;4.09;95.51
83633;BME280;73595;53.084;6.696;2024-02-23T02:11:47;98507.31;;;3.97;95.92
83633;BME280;73595;53.084;6.696;2024-02-23T02:14:13;98458.34;;;3.76;95.73
83633;BME280;73595;53.084;6.696;2024-02-23T02:16:39;98507.59;;;4.02;96.06
83633;BME280;73595;53.084;6.696;2024-02-23T02:19:04;98488.56;;;3.93;96.07
83633;BME280;73595;53.084;6.696;2024-02-23T02:21:31;98470.88;;;3.80;95.92
83633;BME280;73595;53.084;6.696;2024-02-23T02:23:57;98511.69;;;4.11;96.09
83633;BME280;73595;53.084;6.696;2024-02-23T02:26:22;98511.34;;;4.14;95.87
83633;BME280;73595;53.084;6.696;2024-02-23T02:28:48;98489.44;;;4.00;95.66
83633;BME280;73595;53.084;6.696;2024-02-23T02:31:13;98554.97;;;4.43;95.82
83633;BME280;73595;53.084;6.696;2024-02-23T02:33:40;98538.69;;;4.26;95.92
83633;BME280;73595;53.084;6.696;2024-02-23T02:36:05;98502.69;;;3.99;95.38
83633;BME280;73595;53.084;6.696;2024-02-23T02:38:31;98563.50;;;4.45;95.08
83633;BME280;73595;53.084;6.696;2024-02-23T02:40:58;98492.00;;;4.15;93.56
83633;BME280;73595;53.084;6.696;2024-02-23T02:43:25;98472.16;;;4.06;92.72
83633;BME280;73595;53.084;6.696;2024-02-23T02:45:51;98521.22;;;4.33;92.46
83633;BME280;73595;53.084;6.696;2024-02-23T02:48:16;98581.66;;;4.68;92.14
83633;BME280;73595;53.084;6.696;2024-02-23T02:50:42;98563.78;;;4.57;92.47
83633;BME280;73595;53.084;6.696;2024-02-23T02:53:07;98561.38;;;4.55;92.32
83633;BME280;73595;53.084;6.696;2024-02-23T02:55:33;98530.44;;;4.29;91.94
83633;BME280;73595;53.084;6.696;2024-02-23T02:57:58;98598.66;;;4.72;91.88
83633;BME280;73595;53.084;6.696;2024-02-23T03:00:24;98583.66;;;4.66;90.64
83633;BME280;73595;53.084;6.696;2024-02-23T03:02:49;98609.47;;;4.84;89.42
83633;BME280;73595;53.084;6.696;2024-02-23T03:05:15;98500.88;;;4.14;89.96
83633;BME280;73595;53.084;6.696;2024-02-23T03:07:40;98596.34;;;4.84;89.87
83633;BME280;73595;53.084;6.696;2024-02-23T03:10:06;98566.25;;;4.58;88.77
83633;BME280;73595;53.084;6.696;2024-02-23T03:12:31;98577.69;;;4.72;88.64
83633;BME280;73595;53.084;6.696;2024-02-23T03:14:57;98575.41;;;4.69;87.63
83633;BME280;73595;53.084;6.696;2024-02-23T03:17:23;98542.69;;;4.44;87.93
83633;BME280;73595;53.084;6.696;2024-02-23T03:19:48;98597.84;;;4.72;87.88
83633;BME280;73595;53.084;6.696;2024-02-23T03:22:15;98616.53;;;4.83;87.76
83633;BME280;73595;53.084;6.696;2024-02-23T03:24:41;98629.41;;;4.78;87.98
83633;BME280;73595;53.084;6.696;2024-02-23T03:27:06;98623.16;;;4.79;87.49
83633;BME280;73595;53.084;6.696;2024-02-23T03:29:31;98634.44;;;4.80;88.02
83633;BME280;73595;53.084;6.696;2024-02-23T03:31:57;98564.13;;;4.47;86.71
83633;BME280;73595;53.084;6.696;2024-02-23T03:34:23;98547.78;;;4.30;87.37
83633;BME280;73595;53.084;6.696;2024-02-23T03:36:48;98624.94;;;4.79;87.21
83633;BME280;73595;53.084;6.696;2024-02-23T03:39:14;98595.66;;;4.54;87.74
83633;BME280;73595;53.084;6.696;2024-02-23T03:41:39;98629.94;;;4.74;87.12
83633;BME280;73595;53.084;6.696;2024-02-23T03:44:05;98638.75;;;4.87;86.75
83633;BME280;73595;53.084;6.696;2024-02-23T03:46:30;98639.75;;;4.86;86.79
83633;BME280;73595;53.084;6.696;2024-02-23T03:48:56;98642.56;;;4.85;86.59
83633;BME280;73595;53.084;6.696;2024-02-23T03:51:24;98598.66;;;4.51;86.43
83633;BME280;73595;53.084;6.696;2024-02-23T03:53:50;98591.19;;;4.33;87.00
83633;BME280;73595;53.084;6.696;2024-02-23T03:56:15;98654.28;;;4.68;87.50
83633;BME280;73595;53.084;6.696;2024-02-23T03:58:41;98617.03;;;4.36;87.09
83633;BME280;73595;53.084;6.696;2024-02-23T04:01:06;98591.66;;;4.22;87.81
83633;BME280;73595;53.084;6.696;2024-02-23T04:03:32;98642.16;;;4.30;87.65
83633;BME280;73595;53.084;6.696;2024-02-23T04:05:57;98677.56;;;4.56;87.54
83633;BME280;73595;53.084;6.696;2024-02-23T04:08:22;98679.09;;;4.50;88.97
83633;BME280;73595;53.084;6.696;2024-02-23T04:10:48;98618.31;;;4.11;88.80
83633;BME280;73595;53.084;6.696;2024-02-23T04:13:13;98687.63;;;4.52;89.36
83633;BME280;73595;53.084;6.696;2024-02-23T04:15:39;98659.34;;;4.33;89.75
83633;BME280;73595;53.084;6.696;2024-02-23T04:18:05;98702.34;;;4.53;89.03
83633;BME280;73595;53.084;6.696;2024-02-23T04:20:31;98673.69;;;4.37;88.75
83633;BME280;73595;53.084;6.696;2024-02-23T04:22:57;98666.28;;;4.41;87.10
83633;BME280;73595;53.084;6.696;2024-02-23T04:25:22;98688.69;;;4.58;87.17
83633;BME280;73595;53.084;6.696;2024-02-23T04:27:48;98695.03;;;4.49;87.41
83633;BME280;73595;53.084;6.696;2024-02-23T04:30:13;98705.25;;;4.58;88.27
83633;BME280;73595;53.084;6.696;2024-02-23T04:32:39;98721.97;;;4.57;88.47
83633;BME280;73595;53.084;6.696;2024-02-23T04:35:05;98697.38;;;4.58;88.38
83633;BME280;73595;53.084;6.696;2024-02-23T04:37:30;98696.91;;;4.55;89.36
83633;BME280;73595;53.084;6.696;2024-02-23T04:39:56;98713.56;;;4.47;90.34
83633;BME280;73595;53.084;6.696;2024-02-23T04:42:21;98729.38;;;4.54;90.70
83633;BME280;73595;53.084;6.696;2024-02-23T04:44:46;98734.31;;;4.63;91.25
83633;BME280;73595;53.084;6.696;2024-02-23T04:47:14;98725.06;;;4.46;91.03
83633;BME280;73595;53.084;6.696;2024-02-23T04:49:40;98710.31;;;4.30;91.54
83633;BME280;73595;53.084;6.696;2024-02-23T04:52:07;98741.03;;;4.37;91.92
83633;BME280;73595;53.084;6.696;2024-02-23T04:54:33;98733.19;;;4.37;91.01
83633;BME280;73595;53.084;6.696;2024-02-23T04:57:00;98753.44;;;4.43;91.18
83633;BME280;73595;53.084;6.696;2024-02-23T04:59:25;98753.25;;;4.44;90.97
83633;BME280;73595;53.084;6.696;2024-02-23T05:01:50;98757.88;;;4.42;90.85
83633;BME280;73595;53.084;6.696;2024-02-23T05:04:16;98736.00;;;4.20;90.66
83633;BME280;73595;53.084;6.696;2024-02-23T05:06:41;98754.53;;;4.33;90.30
83633;BME280;73595;53.084;6.696;2024-02-23T05:09:08;98725.31;;;4.07;90.35
83633;BME280;73595;53.084;6.696;2024-02-23T05:11:34;98764.53;;;4.30;90.38
83633;BME280;73595;53.084;6.696;2024-02-23T05:14:00;98766.34;;;4.29;90.76
83633;BME280;73595;53.084;6.696;2024-02-23T05:16:25;98658.06;;;3.55;90.61
83633;BME280;73595;53.084;6.696;2024-02-23T05:18:51;98782.09;;;4.29;90.81
83633;BME280;73595;53.084;6.696;2024-02-23T05:21:16;98764.53;;;4.15;90.76
83633;BME280;73595;53.084;6.696;2024-02-23T05:23:42;98785.50;;;4.30;90.92
83633;BME280;73595;53.084;6.696;2024-02-23T05:26:07;98758.59;;;4.06;91.13
83633;BME280;73595;53.084;6.696;2024-02-23T05:28:33;98753.97;;;4.08;91.04
83633;BME280;73595;53.084;6.696;2024-02-23T05:30:58;98735.50;;;3.87;91.29
83633;BME280;73595;53.084;6.696;2024-02-23T05:33:23;98782.88;;;4.15;91.35
83633;BME280;73595;53.084;6.696;2024-02-23T05:35:49;98784.25;;;4.26;91.55
83633;BME280;73595;53.084;6.696;2024-02-23T05:38:15;98778.00;;;4.12;91.74
83633;BME280;73595;53.084;6.696;2024-02-23T05:40:41;98736.13;;;3.89;91.68
83633;BME280;73595;53.084;6.696;2024-02-23T05:43:06;98800.53;;;4.21;91.49
83633;BME280;73595;53.084;6.696;2024-02-23T05:45:32;98790.66;;;4.23;91.94
83633;BME280;73595;53.084;6.696;2024-02-23T05:47:57;98796.56;;;4.25;91.88
83633;BME280;73595;53.084;6.696;2024-02-23T05:50:23;98806.84;;;4.27;92.17
83633;BME280;73595;53.084;6.696;2024-02-23T05:52:48;98787.13;;;4.16;91.75
83633;BME280;73595;53.084;6.696;2024-02-23T05:55:14;98770.88;;;4.06;92.26
83633;BME280;73595;53.084;6.696;2024-02-23T05:57:40;98767.59;;;4.04;92.00
83633;BME280;73595;53.084;6.696;2024-02-23T06:00:05;98819.69;;;4.37;92.31
83633;BME280;73595;53.084;6.696;2024-02-23T06:02:32;98812.53;;;4.30;92.78
83633;BME280;73595;53.084;6.696;2024-02-23T06:04:58;98750.06;;;3.90;92.09
83633;BME280;73595;53.084;6.696;2024-02-23T06:07:23;98806.19;;;4.25;92.46
83633;BME280;73595;53.084;6.696;2024-02-23T06:09:56;98772.22;;;4.02;93.03
83633;BME280;73595;53.084;6.696;2024-02-23T06:12:22;98767.59;;;4.04;93.07
83633;BME280;73595;53.084;6.696;2024-02-23T06:14:48;98762.63;;;3.94;93.30
83633;BME280;73595;53.084;6.696;2024-02-23T06:17:13;98816.53;;;4.26;92.92
83633;BME280;73595;53.084;6.696;2024-02-23T06:19:39;98825.91;;;4.21;92.69
83633;BME280;73595;53.084;6.696;2024-02-23T06:22:04;98834.94;;;4.18;92.65
83633;BME280;73595;53.084;6.696;2024-02-23T06:24:29;98831.88;;;4.15;92.91
83633;BME280;73595;53.084;6.696;2024-02-23T06:26:55;98834.19;;;4.10;92.84
83633;BME280;73595;53.084;6.696;2024-02-23T06:29:20;98846.78;;;4.14;92.08
83633;BME280;73595;53.084;6.696;2024-02-23T06:31:45;98834.38;;;4.08;91.92
83633;BME280;73595;53.084;6.696;2024-02-23T06:34:15;98821.41;;;3.92;91.94
83633;BME280;73595;53.084;6.696;2024-02-23T06:36:41;98843.50;;;4.12;91.66
83633;BME280;73595;53.084;6.696;2024-02-23T06:39:06;98844.25;;;4.06;91.02
83633;BME280;73595;53.084;6.696;2024-02-23T06:41:32;98848.47;;;4.07;91.31
83633;BME280;73595;53.084;6.696;2024-02-23T06:43:57;98845.69;;;4.08;91.38
83633;BME280;73595;53.084;6.696;2024-02-23T06:46:22;98843.41;;;4.05;91.33
83633;BME280;73595;53.084;6.696;2024-02-23T06:48:48;98807.09;;;3.79;91.10
83633;BME280;73595;53.084;6.696;2024-02-23T06:51:13;98820.25;;;3.94;90.70
83633;BME280;73595;53.084;6.696;2024-02-23T06:53:40;98827.22;;;4.02;90.78
83633;BME280;73595;53.084;6.696;2024-02-23T06:56:06;98858.25;;;4.13;91.02
83633;BME280;73595;53.084;6.696;2024-02-23T06:58:31;98814.25;;;3.86;91.18
83633;BME280;73595;53.084;6.696;2024-02-23T07:00:57;98869.72;;;4.12;91.00
83633;BME280;73595;53.084;6.696;2024-02-23T07:03:22;98877.56;;;4.12;91.23
83633;BME280;73595;53.084;6.696;2024-02-23T07:05:48;98872.69;;;4.09;91.73
83633;BME280;73595;53.084;6.696;2024-02-23T07:08:15;98848.63;;;4.05;91.37
83633;BME280;73595;53.084;6.696;2024-02-23T07:10:40;98849.28;;;4.07;91.17
83633;BME280;73595;53.084;6.696;2024-02-23T07:13:06;98881.25;;;4.26;91.07
83633;BME280;73595;53.084;6.696;2024-02-23T07:15:32;98816.72;;;3.87;91.19
83633;BME280;73595;53.084;6.696;2024-02-23T07:17:58;98829.03;;;4.01;91.03
83633;BME280;73595;53.084;6.696;2024-02-23T07:20:24;98887.69;;;4.38;90.47
83633;BME280;73595;53.084;6.696;2024-02-23T07:22:49;98870.88;;;4.32;90.63
83633;BME280;73595;53.084;6.696;2024-02-23T07:25:18;98879.00;;;4.38;90.47
83633;BME280;73595;53.084;6.696;2024-02-23T07:27:45;98893.38;;;4.42;90.37
83633;BME280;73595;53.084;6.696;2024-02-23T07:30:12;98885.22;;;4.37;90.33
83633;BME280;73595;53.084;6.696;2024-02-23T07:32:37;98882.72;;;4.43;90.02
83633;BME280;73595;53.084;6.696;2024-02-23T07:35:03;98893.41;;;4.56;89.78
83633;BME280;73595;53.084;6.696;2024-02-23T07:37:29;98820.19;;;4.17;89.25
83633;BME280;73595;53.084;6.696;2024-02-23T07:39:54;98847.00;;;4.27;89.43
83633;BME280;73595;53.084;6.696;2024-02-23T07:42:20;98869.59;;;4.43;89.37
83633;BME280;73595;53.084;6.696;2024-02-23T07:44:45;98924.63;;;4.66;89.49
83633;BME280;73595;53.084;6.696;2024-02-23T07:47:14;98906.81;;;4.61;89.03
83633;BME280;73595;53.084;6.696;2024-02-23T07:49:39;98904.00;;;4.63;88.60
83633;BME280;73595;53.084;6.696;2024-02-23T07:52:06;98897.50;;;4.59;89.06
83633;BME280;73595;53.084;6.696;2024-02-23T07:54:32;98895.97;;;4.65;88.53
83633;BME280;73595;53.084;6.696;2024-02-23T07:56:57;98908.28;;;4.79;88.82
83633;BME280;73595;53.084;6.696;2024-02-23T07:59:23;98902.94;;;4.72;88.62
83633;BME280;73595;53.084;6.696;2024-02-23T08:01:48;98893.91;;;4.89;88.85
83633;BME280;73595;53.084;6.696;2024-02-23T08:04:14;98925.84;;;5.08;87.92
83633;BME280;73595;53.084;6.696;2024-02-23T08:06:39;98915.53;;;5.06;87.64
83633;BME280;73595;53.084;6.696;2024-02-23T08:09:04;98905.94;;;4.99;87.60
83633;BME280;73595;53.084;6.696;2024-02-23T08:11:30;98909.38;;;4.99;87.60
83633;BME280;73595;53.084;6.696;2024-02-23T08:13:55;98929.47;;;5.22;86.85
83633;BME280;73595;53.084;6.696;2024-02-23T08:16:20;98931.09;;;5.23;86.41
83633;BME280;73595;53.084;6.696;2024-02-23T08:18:46;98910.97;;;5.15;87.00
83633;BME280;73595;53.084;6.696;2024-02-23T08:21:12;98925.47;;;5.26;87.22
83633;BME280;73595;53.084;6.696;2024-02-23T08:23:37;98912.38;;;5.11;87.77
83633;BME280;73595;53.084;6.696;2024-02-23T08:26:03;98908.66;;;5.05;87.02
83633;BME280;73595;53.084;6.696;2024-02-23T08:28:28;98917.50;;;5.19;86.88
83633;BME280;73595;53.084;6.696;2024-02-23T08:30:54;98917.41;;;5.27;86.74
83633;BME280;73595;53.084;6.696;2024-02-23T08:33:19;98904.84;;;5.23;86.41
83633;BME280;73595;53.084;6.696;2024-02-23T08:35:45;98907.38;;;5.31;85.13
83633;BME280;73595;53.084;6.696;2024-02-23T08:38:11;98920.75;;;5.36;85.61
83633;BME280;73595;53.084;6.696;2024-02-23T08:40:37;98912.97;;;5.28;85.92
83633;BME280;73595;53.084;6.696;2024-02-23T08:43:04;98921.84;;;5.27;85.01
83633;BME280;73595;53.084;6.696;2024-02-23T08:45:30;98895.44;;;5.28;83.99
83633;BME280;73595;53.084;6.696;2024-02-23T08:47:55;98898.75;;;5.37;84.80
83633;BME280;73595;53.084;6.696;2024-02-23T08:50:21;98909.34;;;5.43;84.48
83633;BME280;73595;53.084;6.696;2024-02-23T08:52:46;98883.44;;;5.40;84.26
83633;BME280;73595;53.084;6.696;2024-02-23T08:55:11;98900.19;;;5.54;84.36
83633;BME280;73595;53.084;6.696;2024-02-23T08:57:37;98904.59;;;5.54;84.18
83633;BME280;73595;53.084;6.696;2024-02-23T09:00:03;98855.47;;;5.33;84.14
83633;BME280;73595;53.084;6.696;2024-02-23T09:02:30;98852.06;;;5.18;84.62
83633;BME280;73595;53.084;6.696;2024-02-23T09:04:56;98868.25;;;5.36;84.44
83633;BME280;73595;53.084;6.696;2024-02-23T09:07:21;98869.94;;;5.43;84.15
83633;BME280;73595;53.084;6.696;2024-02-23T09:09:49;98906.75;;;5.65;84.56
83633;BME280;73595;53.084;6.696;2024-02-23T09:12:16;98887.47;;;5.58;84.16
83633;BME280;73595;53.084;6.696;2024-02-23T09:14:44;98887.34;;;5.66;84.03
83633;BME280;73595;53.084;6.696;2024-02-23T09:17:10;98892.50;;;5.74;83.22
83633;BME280;73595;53.084;6.696;2024-02-23T09:19:36;98897.03;;;5.80;82.69
83633;BME280;73595;53.084;6.696;2024-02-23T09:22:02;98894.63;;;5.85;82.88
83633;BME280;73595;53.084;6.696;2024-02-23T09:24:27;98898.06;;;6.01;83.15
83633;BME280;73595;53.084;6.696;2024-02-23T09:26:54;98892.22;;;6.05;82.64
83633;BME280;73595;53.084;6.696;2024-02-23T09:29:20;98905.75;;;6.23;82.29
83633;BME280;73595;53.084;6.696;2024-02-23T09:31:46;98781.22;;;5.60;81.29
83633;BME280;73595;53.084;6.696;2024-02-23T09:34:12;98905.69;;;6.38;79.95
83633;BME280;73595;53.084;6.696;2024-02-23T09:36:38;98883.63;;;6.18;78.44
83633;BME280;73595;53.084;6.696;2024-02-23T09:39:03;98863.50;;;6.04;78.66
83633;BME280;73595;53.084;6.696;2024-02-23T09:41:30;98901.13;;;6.26;78.58
83633;BME280;73595;53.084;6.696;2024-02-23T09:44:16;98898.97;;;6.36;78.63
83633;BME280;73595;53.084;6.696;2024-02-23T09:46:43;98893.03;;;6.27;77.99
83633;BME280;73595;53.084;6.696;2024-02-23T09:49:11;98861.13;;;6.09;77.85
83633;BME280;73595;53.084;6.696;2024-02-23T09:51:38;98911.63;;;6.47;78.67
83633;BME280;73595;53.084;6.696;2024-02-23T09:54:04;98874.88;;;6.32;77.45
83633;BME280;73595;53.084;6.696;2024-02-23T09:56:31;98903.53;;;6.48;77.96
83633;BME280;73595;53.084;6.696;2024-02-23T09:59:01;98919.28;;;6.70;77.76
83633;BME280;73595;53.084;6.696;2024-02-23T10:01:29;98908.69;;;6.63;77.28
83633;BME280;73595;53.084;6.696;2024-02-23T10:04:04;98900.19;;;6.61;76.40
83633;BME280;73595;53.084;6.696;2024-02-23T10:06:31;98854.25;;;6.36;76.79
83633;BME280;73595;53.084;6.696;2024-02-23T10:08:57;98887.84;;;6.62;76.12
83633;BME280;73595;53.084;6.696;2024-02-23T10:11:23;98861.06;;;6.51;76.07
83633;BME280;73595;53.084;6.696;2024-02-23T10:13:49;98918.63;;;6.89;76.14
83633;BME280;73595;53.084;6.696;2024-02-23T10:16:18;98918.63;;;6.89;75.34
83633;BME280;73595;53.084;6.696;2024-02-23T10:18:46;98914.13;;;6.83;74.86
83633;BME280;73595;53.084;6.696;2024-02-23T10:21:16;98936.44;;;6.94;74.57
83633;BME280;73595;53.084;6.696;2024-02-23T10:23:47;98931.38;;;6.92;74.85
83633;BME280;73595;53.084;6.696;2024-02-23T10:26:23;98943.94;;;6.90;74.97
83633;BME280;73595;53.084;6.696;2024-02-23T10:28:52;98906.31;;;6.68;74.81
83633;BME280;73595;53.084;6.696;2024-02-23T10:31:32;98946.56;;;6.90;75.01
83633;BME280;73595;53.084;6.696;2024-02-23T10:33:59;98927.56;;;6.67;74.69
83633;BME280;73595;53.084;6.696;2024-02-23T10:36:28;98920.22;;;6.62;75.84
83633;BME280;73595;53.084;6.696;2024-02-23T10:38:56;98944.00;;;6.75;76.23
83633;BME280;73595;53.084;6.696;2024-02-23T10:41:34;98920.31;;;6.47;75.80
83633;BME280;73595;53.084;6.696;2024-02-23T10:44:01;98968.50;;;6.76;75.66
83633;BME280;73595;53.084;6.696;2024-02-23T10:46:48;98945.09;;;6.60;76.15
83633;BME280;73595;53.084;6.696;2024-02-23T10:49:20;98955.28;;;6.69;76.28
83633;BME280;73595;53.084;6.696;2024-02-23T10:52:03;98941.06;;;6.57;76.61
83633;BME280;73595;53.084;6.696;2024-02-23T10:54:33;98939.59;;;6.55;76.44
83633;BME280;73595;53.084;6.696;2024-02-23T10:57:03;98966.25;;;6.73;76.40
83633;BME280;73595;53.084;6.696;2024-02-23T10:59:31;98949.56;;;6.59;76.67
83633;BME280;73595;53.084;6.696;2024-02-23T11:01:58;98942.44;;;6.53;76.69
83633;BME280;73595;53.084;6.696;2024-02-23T11:04:27;98958.56;;;6.71;76.79
83633;BME280;73595;53.084;6.696;2024-02-23T11:06:57;98963.38;;;6.68;76.63
83633;BME280;73595;53.084;6.696;2024-02-23T11:09:26;98947.75;;;6.60;76.66
83633;BME280;73595;53.084;6.696;2024-02-23T11:12:03;98953.63;;;6.62;76.91
83633;BME280;73595;53.084;6.696;2024-02-23T11:17:07;98972.38;;;6.80;77.22
83633;BME280;73595;53.084;6.696;2024-02-23T11:20:03;98973.53;;;6.71;77.85
83633;BME280;73595;53.084;6.696;2024-02-23T11:22:34;98966.88;;;6.75;78.77
83633;BME280;73595;53.084;6.696;2024-02-23T11:25:08;98946.88;;;6.53;78.74
83633;BME280;73595;53.084;6.696;2024-02-23T11:27:50;98979.16;;;6.68;80.02
83633;BME280;73595;53.084;6.696;2024-02-23T11:30:44;98964.53;;;6.59;80.60
83633;BME280;73595;53.084;6.696;2024-02-23T11:33:25;98962.31;;;6.62;79.97
83633;BME280;73595;53.084;6.696;2024-02-23T11:36:10;98980.91;;;6.82;79.79
83633;BME280;73595;53.084;6.696;2024-02-23T11:38:39;98968.09;;;6.72;80.03
83633;BME280;73595;53.084;6.696;2024-02-23T11:41:11;98967.28;;;6.72;79.87
83633;BME280;73595;53.084;6.696;2024-02-23T11:43:42;98963.31;;;6.61;79.52
83633;BME280;73595;53.084;6.696;2024-02-23T11:46:12;98920.22;;;6.34;79.97
83633;BME280;73595;53.084;6.696;2024-02-23T11:48:39;98898.19;;;6.14;80.39
83633;BME280;73595;53.084;6.696;2024-02-23T11:51:05;98960.38;;;6.49;80.37
83633;BME280;73595;53.084;6.696;2024-02-23T11:53:32;98965.78;;;6.41;80.67
83633;BME280;73595;53.084;6.696;2024-02-23T11:56:01;98955.00;;;6.36;80.82
83633;BME280;73595;53.084;6.696;2024-02-23T11:58:33;98974.56;;;6.48;80.69
83633;BME280;73595;53.084;6.696;2024-02-23T12:01:01;99003.50;;;6.48;80.69
83633;BME280;73595;53.084;6.696;2024-02-23T12:03:32;98904.16;;;5.86;81.47
83633;BME280;73595;53.084;6.696;2024-02-23T12:06:05;98973.88;;;6.40;81.95
83633;BME280;73595;53.084;6.696;2024-02-23T12:08:31;98986.69;;;6.49;81.67
83633;BME280;73595;53.084;6.696;2024-02-23T12:11:05;99000.06;;;6.48;82.11
83633;BME280;73595;53.084;6.696;2024-02-23T12:13:34;98982.59;;;6.40;82.16
83633;BME280;73595;53.084;6.696;2024-02-23T12:16:02;98982.78;;;6.39;81.68
83633;BME280;73595;53.084;6.696;2024-02-23T12:18:31;99001.31;;;6.52;82.50
83633;BME280;73595;53.084;6.696;2024-02-23T12:24:00;98993.34;;;6.45;81.63
83633;BME280;73595;53.084;6.696;2024-02-23T12:26:27;98969.72;;;6.31;82.00
83633;BME280;73595;53.084;6.696;2024-02-23T12:29:03;98992.72;;;6.43;81.98
83633;BME280;73595;53.084;6.696;2024-02-23T12:31:33;98980.97;;;6.39;82.39
83633;BME280;73595;53.084;6.696;2024-02-23T12:34:01;98996.59;;;6.47;82.36
83633;BME280;73595;53.084;6.696;2024-02-23T12:36:26;98978.00;;;6.28;82.60
83633;BME280;73595;53.084;6.696;2024-02-23T12:39:12;99010.63;;;6.55;82.55
83633;BME280;73595;53.084;6.696;2024-02-23T12:41:41;98980.91;;;6.33;82.62
83633;BME280;73595;53.084;6.696;2024-02-23T12:44:07;99027.38;;;6.47;82.70
83633;BME280;73595;53.084;6.696;2024-02-23T12:46:35;99005.63;;;6.38;83.00
83633;BME280;73595;53.084;6.696;2024-02-23T12:49:02;98991.59;;;6.31;82.96
83633;BME280;73595;53.084;6.696;2024-02-23T12:51:33;99004.69;;;6.46;83.61
83633;BME280;73595;53.084;6.696;2024-02-23T12:54:20;99010.31;;;6.43;84.11
83633;BME280;73595;53.084;6.696;2024-02-23T12:56:51;98949.38;;;5.96;84.71
83633;BME280;73595;53.084;6.696;2024-02-23T12:59:23;99044.56;;;6.49;84.84
83633;BME280;73595;53.084;6.696;2024-02-23T13:01:49;99006.31;;;6.26;85.30
83633;BME280;73595;53.084;6.696;2024-02-23T13:04:15;99034.25;;;6.48;85.18
83633;BME280;73595;53.084;6.696;2024-02-23T13:06:41;98995.97;;;6.24;85.30
83633;BME280;73595;53.084;6.696;2024-02-23T13:09:17;99035.88;;;6.49;85.66
83633;BME280;73595;53.084;6.696;2024-02-23T13:11:43;99029.25;;;6.53;85.64
83633;BME280;73595;53.084;6.696;2024-02-23T13:14:16;98950.25;;;6.04;85.35